Time;durP1;ratioP1;P1;durP2;ratioP2;P2;SDS_P1;SDS_P2;PMS_P1;PMS_P2;Temp;Humidity;BMP_temperature;BMP_pressure;BME280_temperature;BME280_humidity;BME280_pressure;Samples;Min_cycle;Max_cycle;Signal;HPM_P1;HPM_P2
2024/03/25 00:02:10;;;;;;;6.63;1.90;;;;;;;;;;5013019;28;20416;-79
2024/03/25 00:04:36;;;;;;;3.87;0.93;;;;;;;;;;5011573;28;20440;-79
2024/03/25 00:07:02;;;;;;;3.00;1.27;;;;;;;;;;5015678;28;20418;-79
2024/03/25 00:09:28;;;;;;;4.30;1.60;;;;;;;;;;5016789;28;20417;-78
2024/03/25 00:11:54;;;;;;;5.37;1.30;;;;;;;;;;5015694;28;20424;-78
2024/03/25 00:14:23;;;;;;;4.83;0.73;;;;;;;;;;5016677;28;20487;-79
2024/03/25 00:16:50;;;;;;;5.33;1.00;;;;;;;;;;5016116;28;20995;-78
2024/03/25 00:19:16;;;;;;;4.30;1.20;;;;;;;;;;5016571;28;20425;-79
2024/03/25 00:21:42;;;;;;;5.10;0.70;;;;;;;;;;5016248;28;20418;-78
2024/03/25 00:24:08;;;;;;;8.03;1.40;;;;;;;;;;5016125;28;20429;-79
2024/03/25 00:26:34;;;;;;;4.87;1.13;;;;;;;;;;5016244;28;20470;-79
2024/03/25 00:29:00;;;;;;;7.10;1.57;;;;;;;;;;4998427;28;20925;-78
2024/03/25 00:31:26;;;;;;;4.10;1.07;;;;;;;;;;5011319;28;20438;-79
2024/03/25 00:33:52;;;;;;;7.20;1.00;;;;;;;;;;4998716;28;20479;-78
2024/03/25 00:36:18;;;;;;;5.70;1.73;;;;;;;;;;4998821;28;20881;-78
2024/03/25 00:38:44;;;;;;;6.20;1.37;;;;;;;;;;5003944;28;20423;-78
2024/03/25 00:41:10;;;;;;;3.00;0.70;;;;;;;;;;5005390;28;20415;-78
2024/03/25 00:43:36;;;;;;;3.10;0.80;;;;;;;;;;5006097;28;20900;-78
2024/03/25 00:46:01;;;;;;;2.23;1.03;;;;;;;;;;5003246;28;20512;-78
2024/03/25 00:48:27;;;;;;;2.90;0.70;;;;;;;;;;5006742;28;20431;-78
2024/03/25 00:50:53;;;;;;;3.60;1.27;;;;;;;;;;5005619;28;20515;-79
2024/03/25 00:53:19;;;;;;;4.50;1.10;;;;;;;;;;5004316;28;20510;-79
2024/03/25 00:55:46;;;;;;;2.93;1.00;;;;;;;;;;5006289;28;21225;-79
2024/03/25 00:58:12;;;;;;;3.10;0.50;;;;;;;;;;5004220;28;20804;-79
2024/03/25 01:00:37;;;;;;;6.93;0.90;;;;;;;;;;5004275;28;20487;-78
2024/03/25 01:03:04;;;;;;;3.67;0.60;;;;;;;;;;5006079;28;20439;-79
2024/03/25 01:05:29;;;;;;;2.63;0.60;;;;;;;;;;5004929;28;20512;-82
2024/03/25 01:07:55;;;;;;;7.67;1.20;;;;;;;;;;5005151;28;20498;-78
2024/03/25 01:10:21;;;;;;;2.20;0.60;;;;;;;;;;5005130;28;20941;-78
2024/03/25 01:12:47;;;;;;;3.43;0.57;;;;;;;;;;5004133;28;20452;-77
2024/03/25 01:15:13;;;;;;;4.53;0.50;;;;;;;;;;5004795;28;20794;-78
2024/03/25 01:17:39;;;;;;;5.10;1.60;;;;;;;;;;5005091;28;20482;-79
2024/03/25 01:20:05;;;;;;;4.50;0.97;;;;;;;;;;5003855;28;20417;-79
2024/03/25 01:22:31;;;;;;;4.43;0.63;;;;;;;;;;5004071;28;20423;-79
2024/03/25 01:24:58;;;;;;;3.60;1.07;;;;;;;;;;5005541;28;20936;-79
2024/03/25 01:27:24;;;;;;;6.80;1.43;;;;;;;;;;5003754;28;20417;-79
2024/03/25 01:29:50;;;;;;;8.13;2.20;;;;;;;;;;5006559;28;20902;-78
2024/03/25 01:32:15;;;;;;;2.47;0.60;;;;;;;;;;5003393;28;20422;-77
2024/03/25 01:34:41;;;;;;;3.83;1.17;;;;;;;;;;5005888;28;20558;-78
2024/03/25 01:37:07;;;;;;;12.43;1.97;;;;;;;;;;5005391;28;20400;-80
2024/03/25 01:39:33;;;;;;;4.00;1.20;;;;;;;;;;5004494;28;20779;-78
2024/03/25 01:41:59;;;;;;;7.90;1.80;;;;;;;;;;5002743;28;20816;-78
2024/03/25 01:44:25;;;;;;;3.07;1.10;;;;;;;;;;5005869;28;20474;-80
2024/03/25 01:46:52;;;;;;;5.40;1.40;;;;;;;;;;5002956;28;20423;-81
2024/03/25 01:49:18;;;;;;;5.20;2.37;;;;;;;;;;5005396;28;20412;-83
2024/03/25 01:51:44;;;;;;;8.60;1.80;;;;;;;;;;5005658;28;20409;-82
2024/03/25 01:54:13;;;;;;;9.20;3.93;;;;;;;;;;5003879;28;20472;-80
2024/03/25 01:56:40;;;;;;;7.13;2.00;;;;;;;;;;5006709;28;20771;-79
2024/03/25 01:59:06;;;;;;;7.07;1.93;;;;;;;;;;5004355;28;20413;-80
2024/03/25 02:01:32;;;;;;;6.50;2.00;;;;;;;;;;5002637;28;20512;-84
2024/03/25 02:03:58;;;;;;;6.83;2.40;;;;;;;;;;5005573;28;20510;-81
2024/03/25 02:06:28;;;;;;;13.30;3.60;;;;;;;;;;5005552;28;20405;-81
2024/03/25 02:08:55;;;;;;;7.57;2.30;;;;;;;;;;5005390;28;20408;-82
2024/03/25 02:11:21;;;;;;;5.73;1.90;;;;;;;;;;5005073;28;20924;-80
2024/03/25 02:13:47;;;;;;;4.93;2.10;;;;;;;;;;5002836;28;20479;-81
2024/03/25 02:16:13;;;;;;;6.70;2.20;;;;;;;;;;5003905;28;20772;-81
2024/03/25 02:18:39;;;;;;;7.37;2.57;;;;;;;;;;5004288;28;20425;-81
2024/03/25 02:21:05;;;;;;;9.63;3.03;;;;;;;;;;5002444;28;20407;-79
2024/03/25 02:23:32;;;;;;;5.10;2.43;;;;;;;;;;5006502;28;20502;-79
2024/03/25 02:25:58;;;;;;;8.80;2.63;;;;;;;;;;5003426;28;20491;-77
2024/03/25 02:28:24;;;;;;;8.57;2.47;;;;;;;;;;5001212;28;20420;-81
2024/03/25 02:30:49;;;;;;;10.50;3.23;;;;;;;;;;5003400;28;20438;-82
2024/03/25 02:33:15;;;;;;;8.30;3.20;;;;;;;;;;5004120;28;20488;-85
2024/03/25 02:35:42;;;;;;;6.23;2.57;;;;;;;;;;5005791;28;20450;-80
2024/03/25 02:38:09;;;;;;;9.87;3.70;;;;;;;;;;5004965;28;20478;-82
2024/03/25 02:40:35;;;;;;;7.13;2.63;;;;;;;;;;5002657;28;20497;-80
2024/03/25 02:43:02;;;;;;;5.47;2.30;;;;;;;;;;5002892;28;20425;-81
2024/03/25 02:45:28;;;;;;;5.77;1.60;;;;;;;;;;5002565;28;20512;-83
2024/03/25 02:47:53;;;;;;;2.97;0.83;;;;;;;;;;5002930;28;20926;-81
2024/03/25 02:50:20;;;;;;;4.60;1.20;;;;;;;;;;5004249;28;20954;-81
2024/03/25 02:52:46;;;;;;;6.33;1.90;;;;;;;;;;5003357;28;20472;-80
2024/03/25 02:55:11;;;;;;;4.10;1.70;;;;;;;;;;5006043;28;20419;-81
2024/03/25 02:57:37;;;;;;;4.20;1.00;;;;;;;;;;5001111;28;20416;-81
2024/03/25 03:00:04;;;;;;;3.60;0.80;;;;;;;;;;5004429;28;20423;-80
2024/03/25 03:02:30;;;;;;;4.00;0.93;;;;;;;;;;5001968;28;20778;-83
2024/03/25 03:04:56;;;;;;;2.93;0.90;;;;;;;;;;5001668;28;20422;-82
2024/03/25 03:07:22;;;;;;;4.93;1.33;;;;;;;;;;5004495;28;20413;-78
2024/03/25 03:09:48;;;;;;;7.57;1.13;;;;;;;;;;5002098;28;20451;-80
2024/03/25 03:12:14;;;;;;;3.03;0.73;;;;;;;;;;5000767;28;20992;-78
2024/03/25 03:14:39;;;;;;;5.23;0.83;;;;;;;;;;5001933;28;20549;-81
2024/03/25 03:17:05;;;;;;;3.23;1.10;;;;;;;;;;5004789;28;20413;-80
2024/03/25 03:19:32;;;;;;;4.27;2.00;;;;;;;;;;5005356;28;20419;-80
2024/03/25 03:21:58;;;;;;;7.73;1.57;;;;;;;;;;5002848;28;20464;-82
2024/03/25 03:24:24;;;;;;;4.63;1.07;;;;;;;;;;5002660;28;20894;-80
2024/03/25 03:26:50;;;;;;;8.50;2.53;;;;;;;;;;5002840;28;20797;-83
2024/03/25 03:29:16;;;;;;;8.67;1.60;;;;;;;;;;5003516;28;20509;-82
2024/03/25 03:31:42;;;;;;;7.10;1.97;;;;;;;;;;5004758;28;20414;-81
2024/03/25 03:34:08;;;;;;;4.47;1.53;;;;;;;;;;5002307;28;20459;-80
2024/03/25 03:36:34;;;;;;;4.00;1.80;;;;;;;;;;5003565;28;20935;-79
2024/03/25 03:39:00;;;;;;;7.60;1.80;;;;;;;;;;4999979;28;20428;-79
2024/03/25 03:41:26;;;;;;;4.70;1.30;;;;;;;;;;5003877;28;20427;-82
2024/03/25 03:43:52;;;;;;;2.70;0.93;;;;;;;;;;5003464;28;20426;-79
2024/03/25 03:46:17;;;;;;;5.60;1.43;;;;;;;;;;5006711;28;20511;-79
2024/03/25 03:48:44;;;;;;;9.07;1.60;;;;;;;;;;5005874;28;20498;-79
2024/03/25 03:51:10;;;;;;;5.23;1.60;;;;;;;;;;5004585;28;20419;-80
2024/03/25 03:53:36;;;;;;;4.23;1.50;;;;;;;;;;5003817;28;20468;-80
2024/03/25 03:56:06;;;;;;;5.40;1.20;;;;;;;;;;5007771;28;21123;-79
2024/03/25 03:58:33;;;;;;;4.73;1.30;;;;;;;;;;5005749;28;20422;-82
2024/03/25 04:00:59;;;;;;;6.43;2.10;;;;;;;;;;5004448;28;20418;-79
2024/03/25 04:03:25;;;;;;;7.90;1.50;;;;;;;;;;5005121;28;20482;-80
2024/03/25 04:05:51;;;;;;;4.83;1.87;;;;;;;;;;5007025;28;20468;-81
2024/03/25 04:08:17;;;;;;;11.87;1.80;;;;;;;;;;5008110;28;20509;-79
2024/03/25 04:10:44;;;;;;;4.97;1.37;;;;;;;;;;5004841;28;20433;-78
2024/03/25 04:13:11;;;;;;;5.40;1.50;;;;;;;;;;5006990;28;20597;-82
2024/03/25 04:15:37;;;;;;;3.10;1.50;;;;;;;;;;5004188;28;20850;-79
2024/03/25 04:18:03;;;;;;;3.37;1.00;;;;;;;;;;5007562;28;20424;-78
2024/03/25 04:20:29;;;;;;;5.20;2.40;;;;;;;;;;5008384;28;20416;-83
2024/03/25 04:22:55;;;;;;;3.20;0.63;;;;;;;;;;5005419;28;20503;-79
2024/03/25 04:25:21;;;;;;;4.10;1.03;;;;;;;;;;5005603;28;20485;-79
2024/03/25 04:27:47;;;;;;;3.43;1.80;;;;;;;;;;5005224;28;20918;-79
2024/03/25 04:30:14;;;;;;;1.80;1.00;;;;;;;;;;5006191;28;20424;-83
2024/03/25 04:32:40;;;;;;;4.63;0.90;;;;;;;;;;5007011;28;20537;-79
2024/03/25 04:35:06;;;;;;;3.50;0.50;;;;;;;;;;5007213;28;20416;-79
2024/03/25 04:37:33;;;;;;;4.57;0.70;;;;;;;;;;5003463;28;20985;-78
2024/03/25 04:39:59;;;;;;;2.73;0.93;;;;;;;;;;5008028;28;20424;-79
2024/03/25 04:42:25;;;;;;;4.17;0.80;;;;;;;;;;5007311;28;20406;-81
2024/03/25 04:44:51;;;;;;;7.10;1.50;;;;;;;;;;5005115;28;20437;-80
2024/03/25 04:47:17;;;;;;;4.60;1.30;;;;;;;;;;5005770;28;20434;-81
2024/03/25 04:49:43;;;;;;;5.03;1.20;;;;;;;;;;5006880;28;20921;-79
2024/03/25 04:52:09;;;;;;;6.80;0.50;;;;;;;;;;5004159;28;20893;-82
2024/03/25 04:54:35;;;;;;;4.20;0.70;;;;;;;;;;5007069;28;20478;-80
2024/03/25 04:57:01;;;;;;;3.37;1.10;;;;;;;;;;5004758;28;20418;-79
2024/03/25 04:59:27;;;;;;;1.90;0.77;;;;;;;;;;5006626;28;20496;-79
2024/03/25 05:01:53;;;;;;;4.90;0.97;;;;;;;;;;5004795;28;20776;-78
2024/03/25 05:04:20;;;;;;;2.53;1.33;;;;;;;;;;5003728;28;20434;-78
2024/03/25 05:06:46;;;;;;;3.47;0.80;;;;;;;;;;5006451;28;20407;-79
2024/03/25 05:09:12;;;;;;;2.97;0.57;;;;;;;;;;5006456;28;20445;-82
2024/03/25 05:11:38;;;;;;;1.73;0.83;;;;;;;;;;5006390;28;20907;-84
2024/03/25 05:14:04;;;;;;;2.73;0.70;;;;;;;;;;5004492;28;20863;-79
2024/03/25 05:16:30;;;;;;;2.07;0.67;;;;;;;;;;5003003;28;20404;-79
2024/03/25 05:18:56;;;;;;;2.23;0.50;;;;;;;;;;5005489;28;20945;-79
2024/03/25 05:21:22;;;;;;;2.77;0.73;;;;;;;;;;5004778;28;20421;-81
2024/03/25 05:23:48;;;;;;;2.50;0.80;;;;;;;;;;5012877;28;20429;-81
2024/03/25 05:26:14;;;;;;;4.23;0.90;;;;;;;;;;5005151;28;20420;-79
2024/03/25 05:28:41;;;;;;;5.80;1.47;;;;;;;;;;5004653;28;20420;-83
2024/03/25 05:31:07;;;;;;;2.03;0.60;;;;;;;;;;5006510;28;20904;-81
2024/03/25 05:33:33;;;;;;;2.77;1.00;;;;;;;;;;5005383;28;20471;-82
2024/03/25 05:36:00;;;;;;;3.80;0.53;;;;;;;;;;5005928;28;20403;-79
2024/03/25 05:38:26;;;;;;;3.20;1.23;;;;;;;;;;5006347;28;20419;-79
2024/03/25 05:40:52;;;;;;;2.40;1.03;;;;;;;;;;5004761;28;20459;-81
2024/03/25 05:43:18;;;;;;;2.57;0.30;;;;;;;;;;5006746;28;20429;-79
2024/03/25 05:45:53;;;;;;;5.63;0.93;;;;;;;;;;5004176;28;20419;-84
2024/03/25 05:48:19;;;;;;;3.00;1.10;;;;;;;;;;5005520;28;20466;-81
2024/03/25 05:50:45;;;;;;;3.57;1.13;;;;;;;;;;5006498;28;20831;-79
2024/03/25 05:53:11;;;;;;;3.20;0.93;;;;;;;;;;5004128;28;20459;-78
2024/03/25 05:55:37;;;;;;;1.57;0.40;;;;;;;;;;5004497;28;20462;-82
2024/03/25 05:58:03;;;;;;;2.20;1.33;;;;;;;;;;5005622;28;20422;-78
2024/03/25 06:00:32;;;;;;;3.50;0.70;;;;;;;;;;5003724;28;20442;-81
2024/03/25 06:02:58;;;;;;;3.87;1.40;;;;;;;;;;5006263;28;20775;-81
2024/03/25 06:05:24;;;;;;;5.73;2.40;;;;;;;;;;5002921;28;20424;-81
2024/03/25 06:07:50;;;;;;;4.53;1.50;;;;;;;;;;5003269;28;20427;-79
2024/03/25 06:10:16;;;;;;;3.43;1.50;;;;;;;;;;5004182;28;20413;-79
2024/03/25 06:12:42;;;;;;;3.40;1.40;;;;;;;;;;5005398;28;20415;-79
2024/03/25 06:15:08;;;;;;;7.20;0.87;;;;;;;;;;5003606;28;20535;-79
2024/03/25 06:17:34;;;;;;;4.43;0.53;;;;;;;;;;5005121;28;20418;-85
2024/03/25 06:20:00;;;;;;;5.77;1.30;;;;;;;;;;5003655;28;20817;-79
2024/03/25 06:22:26;;;;;;;4.03;1.03;;;;;;;;;;5011988;28;20427;-81
2024/03/25 06:24:53;;;;;;;2.33;1.10;;;;;;;;;;5014599;28;20495;-80
2024/03/25 06:27:19;;;;;;;5.20;1.83;;;;;;;;;;5014764;28;20411;-79
2024/03/25 06:29:46;;;;;;;2.33;0.80;;;;;;;;;;5014347;28;20405;-78
2024/03/25 06:35:00;;;;;;;3.33;0.93;;;;;;;;;;5014708;28;20485;-83
2024/03/25 06:37:26;;;;;;;2.33;0.43;;;;;;;;;;5013106;28;20925;-85
2024/03/25 06:39:53;;;;;;;2.10;0.70;;;;;;;;;;5013376;28;20428;-87
2024/03/25 06:42:19;;;;;;;5.57;0.83;;;;;;;;;;5014234;28;20412;-86
2024/03/25 06:44:49;;;;;;;1.97;0.40;;;;;;;;;;5013964;28;20408;-81
2024/03/25 06:47:15;;;;;;;1.67;0.80;;;;;;;;;;5014242;28;20407;-79
2024/03/25 06:49:41;;;;;;;4.60;0.90;;;;;;;;;;5012535;28;20938;-84
2024/03/25 06:52:07;;;;;;;1.90;0.40;;;;;;;;;;5013659;28;20420;-80
2024/03/25 06:54:33;;;;;;;5.93;1.00;;;;;;;;;;5012338;28;21004;-80
2024/03/25 06:56:58;;;;;;;2.33;0.67;;;;;;;;;;5013770;28;20495;-84
2024/03/25 06:59:25;;;;;;;5.00;1.00;;;;;;;;;;5013643;28;20522;-82
2024/03/25 07:01:50;;;;;;;1.50;0.57;;;;;;;;;;5013128;28;20803;-85
2024/03/25 07:04:16;;;;;;;3.40;0.83;;;;;;;;;;5013453;28;20424;-79
2024/03/25 07:06:42;;;;;;;3.23;0.93;;;;;;;;;;5013280;28;20448;-81
2024/03/25 07:09:11;;;;;;;5.50;0.80;;;;;;;;;;5013749;28;20915;-79
2024/03/25 07:11:36;;;;;;;2.20;0.53;;;;;;;;;;5014482;28;20447;-87
2024/03/25 07:14:02;;;;;;;10.80;1.33;;;;;;;;;;5013842;28;20968;-82
2024/03/25 07:16:28;;;;;;;6.60;1.93;;;;;;;;;;5013000;28;20418;-82
2024/03/25 07:18:54;;;;;;;3.40;1.10;;;;;;;;;;5012660;28;20416;-81
2024/03/25 07:21:20;;;;;;;3.70;1.43;;;;;;;;;;5013871;28;20786;-82
2024/03/25 07:23:46;;;;;;;2.70;1.03;;;;;;;;;;5013691;28;20509;-82
2024/03/25 07:26:12;;;;;;;5.07;1.47;;;;;;;;;;5013730;28;20829;-80
2024/03/25 07:28:38;;;;;;;5.73;2.70;;;;;;;;;;5013682;28;20420;-82
2024/03/25 07:31:04;;;;;;;3.93;0.63;;;;;;;;;;5013777;28;20429;-81
2024/03/25 07:33:30;;;;;;;5.97;2.23;;;;;;;;;;5012709;28;20477;-80
2024/03/25 07:35:56;;;;;;;4.83;1.27;;;;;;;;;;5013697;28;20417;-83
2024/03/25 07:38:22;;;;;;;5.07;1.80;;;;;;;;;;5013008;28;20785;-80
2024/03/25 07:40:47;;;;;;;6.27;1.90;;;;;;;;;;5013361;28;20425;-82
2024/03/25 07:43:14;;;;;;;4.20;1.00;;;;;;;;;;5013274;28;20448;-89
2024/03/25 07:45:40;;;;;;;3.80;0.93;;;;;;;;;;5011679;28;20412;-85
2024/03/25 07:48:07;;;;;;;3.67;1.50;;;;;;;;;;5013039;28;20480;-80
2024/03/25 07:50:33;;;;;;;2.70;1.07;;;;;;;;;;5013032;28;20413;-79
2024/03/25 07:52:59;;;;;;;5.53;1.23;;;;;;;;;;5012918;28;20471;-82
2024/03/25 07:55:25;;;;;;;3.43;1.10;;;;;;;;;;5013226;28;20429;-79
2024/03/25 07:57:51;;;;;;;5.00;0.90;;;;;;;;;;5013150;28;20409;-83
2024/03/25 08:00:17;;;;;;;4.40;0.80;;;;;;;;;;5012778;28;20418;-81
2024/03/25 08:02:43;;;;;;;2.97;1.27;;;;;;;;;;5013089;28;20406;-79
2024/03/25 08:05:09;;;;;;;5.87;1.30;;;;;;;;;;5012771;28;20429;-85
2024/03/25 08:07:35;;;;;;;3.97;1.50;;;;;;;;;;5012957;28;20591;-78
2024/03/25 08:10:01;;;;;;;4.63;0.87;;;;;;;;;;5011671;28;20460;-79
2024/03/25 08:12:27;;;;;;;5.00;0.90;;;;;;;;;;5012940;28;20414;-83
2024/03/25 08:14:52;;;;;;;3.60;0.70;;;;;;;;;;5012312;28;20844;-78
2024/03/25 08:17:18;;;;;;;3.13;0.80;;;;;;;;;;5012960;28;20887;-86
2024/03/25 08:19:44;;;;;;;5.50;0.93;;;;;;;;;;5012940;28;20417;-81
2024/03/25 08:22:10;;;;;;;6.73;2.10;;;;;;;;;;5013009;28;20772;-79
2024/03/25 08:24:36;;;;;;;6.03;1.90;;;;;;;;;;5012908;28;20416;-84
2024/03/25 08:27:03;;;;;;;3.70;1.47;;;;;;;;;;5011472;28;20456;-82
2024/03/25 08:29:28;;;;;;;5.13;1.90;;;;;;;;;;5014414;28;20420;-80
2024/03/25 08:31:54;;;;;;;3.93;1.63;;;;;;;;;;5016308;28;20960;-81
2024/03/25 08:34:20;;;;;;;4.23;2.17;;;;;;;;;;5016157;28;20472;-82
2024/03/25 08:36:46;;;;;;;6.10;2.90;;;;;;;;;;5015482;28;20414;-81
2024/03/25 08:39:12;;;;;;;9.27;2.23;;;;;;;;;;5016137;28;20907;-84
2024/03/25 08:41:38;;;;;;;4.27;2.00;;;;;;;;;;5010003;28;20419;-84
2024/03/25 08:44:04;;;;;;;12.63;3.30;;;;;;;;;;5005546;28;20411;-82
2024/03/25 08:46:30;;;;;;;7.10;2.30;;;;;;;;;;5005345;28;20778;-82
2024/03/25 08:48:56;;;;;;;5.80;1.53;;;;;;;;;;5007002;28;20467;-85
2024/03/25 08:51:22;;;;;;;4.60;1.50;;;;;;;;;;5004349;28;20474;-83
2024/03/25 08:53:48;;;;;;;16.33;2.07;;;;;;;;;;5005217;28;20473;-80
2024/03/25 08:56:14;;;;;;;4.50;1.73;;;;;;;;;;5004731;28;20508;-80
2024/03/25 08:58:40;;;;;;;4.20;1.03;;;;;;;;;;5007295;28;20903;-83
2024/03/25 09:01:06;;;;;;;7.07;1.90;;;;;;;;;;5004835;28;20461;-84
2024/03/25 09:03:33;;;;;;;4.73;1.37;;;;;;;;;;5004488;28;20803;-82
2024/03/25 09:05:59;;;;;;;3.90;1.53;;;;;;;;;;5006622;28;20181;-83
2024/03/25 09:08:25;;;;;;;6.97;1.07;;;;;;;;;;5004434;28;20422;-81
2024/03/25 09:11:03;;;;;;;3.37;1.23;;;;;;;;;;5005396;28;20527;-81
2024/03/25 09:13:30;;;;;;;4.70;1.20;;;;;;;;;;5004354;28;20469;-80
2024/03/25 09:15:55;;;;;;;5.77;1.43;;;;;;;;;;5003721;28;20966;-80
2024/03/25 09:18:21;;;;;;;5.70;1.27;;;;;;;;;;5006514;28;20425;-78
2024/03/25 09:20:47;;;;;;;7.83;1.43;;;;;;;;;;5005343;28;20187;-81
2024/03/25 09:23:13;;;;;;;4.13;0.43;;;;;;;;;;5002581;28;20946;-78
2024/03/25 09:25:39;;;;;;;5.97;1.30;;;;;;;;;;5005887;28;20503;-79
2024/03/25 09:28:06;;;;;;;5.37;1.40;;;;;;;;;;5005009;28;20901;-76
2024/03/25 09:30:32;;;;;;;6.60;1.37;;;;;;;;;;5003996;28;20415;-80
2024/03/25 09:32:58;;;;;;;3.57;0.97;;;;;;;;;;5005792;28;20421;-83
2024/03/25 09:35:23;;;;;;;6.43;1.20;;;;;;;;;;5004498;28;20982;-82
2024/03/25 09:37:49;;;;;;;5.90;1.20;;;;;;;;;;5003032;28;20422;-79
2024/03/25 09:40:15;;;;;;;7.73;1.37;;;;;;;;;;5004215;28;20175;-80
2024/03/25 09:42:47;;;;;;;5.40;1.10;;;;;;;;;;5004348;28;20541;-79
2024/03/25 09:45:13;;;;;;;4.87;0.87;;;;;;;;;;5002395;28;20418;-79
2024/03/25 09:47:40;;;;;;;6.63;1.50;;;;;;;;;;5003700;28;20425;-79
2024/03/25 09:50:08;;;;;;;5.27;1.27;;;;;;;;;;5004614;28;20479;-79
2024/03/25 09:52:34;;;;;;;8.70;0.93;;;;;;;;;;5005598;28;20511;-80
2024/03/25 09:55:00;;;;;;;4.27;1.47;;;;;;;;;;5004364;28;20475;-80
2024/03/25 09:57:26;;;;;;;4.53;1.23;;;;;;;;;;5006662;28;20465;-81
2024/03/25 09:59:53;;;;;;;2.60;0.80;;;;;;;;;;5003685;28;20423;-80
2024/03/25 10:02:19;;;;;;;5.03;0.80;;;;;;;;;;5001580;28;20407;-79
2024/03/25 10:04:48;;;;;;;7.00;1.17;;;;;;;;;;4997571;28;20426;-80
2024/03/25 10:07:26;;;;;;;3.60;0.60;;;;;;;;;;5003132;28;20623;-81
2024/03/25 10:09:52;;;;;;;6.10;2.63;;;;;;;;;;5005138;28;20422;-83
2024/03/25 10:12:18;;;;;;;8.50;1.10;;;;;;;;;;5003460;28;20422;-82
2024/03/25 10:14:44;;;;;;;8.67;1.03;;;;;;;;;;5002647;28;20489;-80
2024/03/25 10:17:11;;;;;;;6.20;1.40;;;;;;;;;;5005932;28;21155;-80
2024/03/25 10:19:37;;;;;;;4.90;0.77;;;;;;;;;;5003388;28;20423;-78
2024/03/25 10:22:07;;;;;;;3.20;0.63;;;;;;;;;;5004261;28;20758;-77
2024/03/25 10:24:43;;;;;;;3.87;0.73;;;;;;;;;;5004887;28;20181;-77
2024/03/25 10:27:26;;;;;;;6.27;0.70;;;;;;;;;;4999646;28;20418;-77
2024/03/25 10:29:55;;;;;;;6.40;1.23;;;;;;;;;;5001142;28;20503;-77
2024/03/25 10:32:21;;;;;;;4.70;1.30;;;;;;;;;;5006892;28;20414;-79
2024/03/25 10:34:46;;;;;;;4.10;1.10;;;;;;;;;;5014111;28;20483;-80
2024/03/25 10:37:14;;;;;;;6.07;1.50;;;;;;;;;;5014172;28;20164;-79
2024/03/25 10:39:47;;;;;;;6.50;0.90;;;;;;;;;;5014208;28;20477;-77
2024/03/25 10:42:15;;;;;;;3.87;0.83;;;;;;;;;;5014061;28;20904;-82
2024/03/25 10:44:41;;;;;;;6.77;1.10;;;;;;;;;;5013645;28;20418;-79
2024/03/25 10:47:07;;;;;;;6.10;0.70;;;;;;;;;;5010904;28;20758;-79
2024/03/25 10:49:34;;;;;;;4.70;0.60;;;;;;;;;;4996809;28;20426;-79
2024/03/25 10:52:01;;;;;;;6.70;0.87;;;;;;;;;;4993577;28;20898;-78
2024/03/25 10:54:29;;;;;;;2.13;0.43;;;;;;;;;;4993913;28;20528;-80
2024/03/25 10:56:56;;;;;;;3.50;1.77;;;;;;;;;;4994187;28;20745;-79
2024/03/25 10:59:24;;;;;;;3.40;0.87;;;;;;;;;;4993488;28;20433;-77
2024/03/25 11:01:50;;;;;;;3.50;0.80;;;;;;;;;;5001821;28;20506;-77
2024/03/25 11:04:16;;;;;;;13.43;1.80;;;;;;;;;;5004345;28;20465;-76
2024/03/25 11:06:42;;;;;;;6.50;1.17;;;;;;;;;;5002675;28;20255;-77
2024/03/25 11:09:07;;;;;;;3.77;0.90;;;;;;;;;;5003506;28;20420;-77
2024/03/25 11:11:34;;;;;;;4.23;0.97;;;;;;;;;;5007001;28;20445;-76
2024/03/25 11:14:00;;;;;;;5.17;1.80;;;;;;;;;;5012758;28;20241;-79
2024/03/25 11:16:32;;;;;;;7.47;1.23;;;;;;;;;;5013644;28;20419;-75
2024/03/25 11:19:06;;;;;;;7.50;0.80;;;;;;;;;;5012865;28;20455;-86
2024/03/25 11:21:32;;;;;;;3.47;0.67;;;;;;;;;;5013971;28;20437;-82
2024/03/25 11:24:07;;;;;;;5.00;1.10;;;;;;;;;;5013462;28;20435;-78
2024/03/25 11:26:35;;;;;;;3.30;0.73;;;;;;;;;;5013532;28;20413;-85
2024/03/25 11:29:01;;;;;;;2.70;0.60;;;;;;;;;;5013282;28;20413;-83
2024/03/25 11:31:27;;;;;;;2.17;0.50;;;;;;;;;;5013735;28;20406;-87
2024/03/25 11:33:54;;;;;;;3.17;0.67;;;;;;;;;;5013356;28;20476;-78
2024/03/25 11:36:24;;;;;;;4.90;0.53;;;;;;;;;;5013445;28;20405;-77
2024/03/25 11:38:58;;;;;;;2.90;0.70;;;;;;;;;;5013585;28;20486;-82
2024/03/25 11:41:24;;;;;;;4.17;0.73;;;;;;;;;;5013421;28;20516;-85
2024/03/25 11:43:50;;;;;;;3.13;1.03;;;;;;;;;;5003388;28;20571;-80
2024/03/25 11:46:18;;;;;;;4.53;1.20;;;;;;;;;;5001937;28;20420;-83
2024/03/25 11:48:44;;;;;;;4.60;0.90;;;;;;;;;;5003868;28;20925;-89
2024/03/25 11:51:17;;;;;;;4.17;0.97;;;;;;;;;;5000820;28;20409;-86
2024/03/25 11:53:42;;;;;;;4.60;0.87;;;;;;;;;;5000928;28;20473;-77
2024/03/25 11:56:08;;;;;;;3.60;1.10;;;;;;;;;;5003909;28;20409;-78
2024/03/25 11:58:34;;;;;;;5.40;0.73;;;;;;;;;;5002026;28;20422;-80
2024/03/25 12:01:00;;;;;;;4.80;0.93;;;;;;;;;;5005246;28;20475;-87
2024/03/25 12:03:27;;;;;;;3.20;1.30;;;;;;;;;;5004673;28;20500;-86
2024/03/25 12:05:53;;;;;;;4.83;0.60;;;;;;;;;;5007766;28;20176;-81
2024/03/25 12:08:19;;;;;;;4.10;0.83;;;;;;;;;;5008462;28;20406;-77
2024/03/25 12:13:30;;;;;;;4.93;0.73;;;;;;;;;;5007078;28;20264;-78
2024/03/25 12:15:55;;;;;;;6.40;0.97;;;;;;;;;;5007088;28;20461;-79
2024/03/25 12:18:22;;;;;;;5.23;0.87;;;;;;;;;;5003196;28;20463;-78
2024/03/25 12:20:48;;;;;;;3.37;1.10;;;;;;;;;;5006863;28;20453;-78
2024/03/25 12:23:14;;;;;;;4.27;1.33;;;;;;;;;;5014448;28;20416;-78
2024/03/25 12:25:41;;;;;;;4.40;0.67;;;;;;;;;;5016224;28;20418;-77
2024/03/25 12:28:09;;;;;;;3.93;0.67;;;;;;;;;;5016255;28;20423;-76
2024/03/25 12:30:51;;;;;;;7.10;1.33;;;;;;;;;;5015821;28;20429;-77
2024/03/25 12:33:17;;;;;;;7.83;1.60;;;;;;;;;;5016035;28;20500;-78
2024/03/25 12:35:45;;;;;;;3.00;1.10;;;;;;;;;;5016073;28;20811;-77
2024/03/25 12:38:21;;;;;;;2.73;0.43;;;;;;;;;;5015922;28;20428;-80
2024/03/25 12:40:47;;;;;;;3.13;0.60;;;;;;;;;;5015620;28;20405;-82
2024/03/25 12:43:16;;;;;;;4.23;0.77;;;;;;;;;;5015635;28;20946;-76
2024/03/25 12:45:42;;;;;;;5.07;1.20;;;;;;;;;;5015995;28;20181;-76
2024/03/25 12:48:08;;;;;;;8.47;1.47;;;;;;;;;;5015957;28;20411;-77
2024/03/25 12:50:34;;;;;;;4.67;0.90;;;;;;;;;;5015788;28;20510;-77
2024/03/25 12:53:00;;;;;;;3.57;1.27;;;;;;;;;;5015675;28;20453;-77
2024/03/25 12:55:26;;;;;;;2.67;0.40;;;;;;;;;;4998249;28;20451;-78
2024/03/25 12:57:52;;;;;;;2.87;0.50;;;;;;;;;;4995967;28;20255;-77
2024/03/25 13:00:18;;;;;;;3.77;1.07;;;;;;;;;;4995718;28;20923;-77
2024/03/25 13:02:44;;;;;;;3.63;0.50;;;;;;;;;;4995924;28;20271;-77
2024/03/25 13:05:10;;;;;;;3.43;0.20;;;;;;;;;;4995872;28;20469;-77
2024/03/25 13:07:36;;;;;;;2.33;0.60;;;;;;;;;;4995958;28;20423;-77
2024/03/25 13:10:04;;;;;;;2.43;0.70;;;;;;;;;;4995873;28;20469;-77
2024/03/25 13:12:30;;;;;;;2.97;0.57;;;;;;;;;;4995700;28;20442;-78
2024/03/25 13:14:58;;;;;;;3.10;0.97;;;;;;;;;;4994406;28;20509;-77
2024/03/25 13:17:24;;;;;;;2.90;0.30;;;;;;;;;;4995757;28;20411;-78
2024/03/25 13:19:50;;;;;;;5.83;0.67;;;;;;;;;;4994477;28;20827;-77
2024/03/25 13:22:16;;;;;;;2.97;0.73;;;;;;;;;;4995754;28;20174;-77
2024/03/25 13:24:42;;;;;;;1.37;0.40;;;;;;;;;;4995690;28;20198;-78
2024/03/25 13:27:08;;;;;;;2.40;0.40;;;;;;;;;;4995638;28;20441;-78
2024/03/25 13:29:37;;;;;;;2.53;0.67;;;;;;;;;;4995205;28;20182;-77
2024/03/25 13:32:03;;;;;;;2.97;0.37;;;;;;;;;;4996033;28;20489;-78
2024/03/25 13:34:28;;;;;;;6.60;0.50;;;;;;;;;;5014593;28;21055;-77
2024/03/25 13:36:54;;;;;;;1.60;0.70;;;;;;;;;;5013484;28;20454;-78
2024/03/25 13:39:20;;;;;;;3.30;0.60;;;;;;;;;;5014803;28;20218;-77
2024/03/25 13:41:47;;;;;;;2.37;0.60;;;;;;;;;;5013965;28;20504;-78
2024/03/25 13:44:12;;;;;;;2.67;0.20;;;;;;;;;;5014059;28;20419;-78
2024/03/25 13:46:39;;;;;;;3.20;0.73;;;;;;;;;;5014479;28;20496;-77
2024/03/25 13:49:05;;;;;;;1.93;0.30;;;;;;;;;;5004805;28;20189;-77
2024/03/25 13:51:31;;;;;;;2.50;0.80;;;;;;;;;;5005407;28;20542;-78
2024/03/25 13:53:57;;;;;;;3.33;0.60;;;;;;;;;;5007190;28;20220;-77
2024/03/25 13:56:23;;;;;;;6.03;0.90;;;;;;;;;;5005237;28;20237;-78
2024/03/25 13:58:48;;;;;;;4.57;1.90;;;;;;;;;;5013831;28;20518;-78
2024/03/25 14:01:15;;;;;;;2.53;0.47;;;;;;;;;;5005511;28;20181;-79
2024/03/25 14:03:41;;;;;;;2.63;0.50;;;;;;;;;;4994662;28;20183;-80
2024/03/25 14:06:07;;;;;;;3.17;0.63;;;;;;;;;;4994583;28;20888;-78
2024/03/25 14:08:33;;;;;;;3.40;0.53;;;;;;;;;;4994503;28;20181;-78
2024/03/25 14:10:59;;;;;;;2.90;0.70;;;;;;;;;;4994507;28;20415;-78
2024/03/25 14:13:25;;;;;;;7.97;0.70;;;;;;;;;;4994209;28;20679;-77
2024/03/25 14:15:52;;;;;;;4.10;0.63;;;;;;;;;;4994470;28;20471;-77
2024/03/25 14:18:17;;;;;;;5.87;0.67;;;;;;;;;;4993023;28;20477;-77
2024/03/25 14:20:44;;;;;;;3.80;0.90;;;;;;;;;;4994837;28;20427;-78
2024/03/25 14:23:10;;;;;;;2.10;0.63;;;;;;;;;;4994382;28;20190;-77
2024/03/25 14:25:36;;;;;;;5.27;0.73;;;;;;;;;;4994319;28;20417;-78
2024/03/25 14:28:01;;;;;;;3.43;0.40;;;;;;;;;;4994128;28;20431;-78
2024/03/25 14:30:28;;;;;;;4.03;0.30;;;;;;;;;;4994384;28;20182;-78
2024/03/25 14:32:55;;;;;;;2.43;0.20;;;;;;;;;;4994239;28;20424;-78
2024/03/25 14:35:21;;;;;;;3.37;0.73;;;;;;;;;;4994470;28;20477;-78
2024/03/25 14:37:46;;;;;;;1.77;0.30;;;;;;;;;;4994888;28;20411;-83
2024/03/25 14:40:13;;;;;;;3.77;0.80;;;;;;;;;;4994387;28;20421;-87
2024/03/25 14:42:39;;;;;;;1.30;0.20;;;;;;;;;;4994756;28;20505;-83
2024/03/25 14:45:05;;;;;;;3.03;0.60;;;;;;;;;;4994353;28;20456;-83